Time;durP1;ratioP1;P1;durP2;ratioP2;P2;SDS_P1;SDS_P2;PMS_P1;PMS_P2;Temp;Humidity;BMP_temperature;BMP_pressure;BME280_temperature;BME280_humidity;BME280_pressure;Samples;Min_cycle;Max_cycle;Signal;HPM_P1;HPM_P2
2021/12/18 00:01:37;;;;;;;48.33;11.57;;;;;;;0.48;91.62;101205.55;1717634;82;21071;-72
2021/12/18 00:04:04;;;;;;;14.33;8.28;;;;;;;0.56;91.76;101210.41;1718909;82;21059;-72
2021/12/18 00:06:31;;;;;;;15.30;7.08;;;;;;;0.63;91.79;101209.66;1720832;81;20952;-72
2021/12/18 00:08:59;;;;;;;17.32;6.50;;;;;;;0.70;91.83;101205.89;1697562;82;26586;-71
2021/12/18 00:11:26;;;;;;;16.50;8.63;;;;;;;0.75;91.93;101203.84;1718097;82;21584;-72
2021/12/18 00:13:53;;;;;;;20.55;6.75;;;;;;;0.82;91.98;101199.27;1721456;82;22352;-72
2021/12/18 00:16:20;;;;;;;26.27;6.42;;;;;;;0.87;92.01;101199.34;1699331;82;21158;-72
2021/12/18 00:18:49;;;;;;;12.93;5.28;;;;;;;0.89;91.91;101202.78;1718035;82;21169;-72
2021/12/18 00:21:17;;;;;;;10.68;5.67;;;;;;;0.93;91.94;101203.30;1715770;82;21172;-72
2021/12/18 00:23:43;;;;;;;24.80;5.95;;;;;;;0.98;92.04;101202.95;1720146;83;21043;-72
2021/12/18 00:26:10;;;;;;;21.07;6.58;;;;;;;1.03;92.12;101201.30;1696079;82;21942;-72
2021/12/18 00:28:37;;;;;;;28.38;8.08;;;;;;;1.08;92.13;101215.09;1689267;83;21055;-71
2021/12/18 00:31:03;;;;;;;56.83;6.90;;;;;;;1.14;92.21;101210.89;1716605;81;21083;-71
2021/12/18 00:33:31;;;;;;;31.60;6.83;;;;;;;1.17;92.19;101214.36;1724328;82;21000;-71
2021/12/18 00:35:58;;;;;;;19.70;4.60;;;;;;;1.20;92.15;101212.27;1729610;82;21148;-72
2021/12/18 00:38:29;;;;;;;15.80;5.28;;;;;;;1.24;92.25;101215.34;1720440;82;21433;-72
2021/12/18 00:41:11;;;;;;;24.10;6.28;;;;;;;1.29;92.37;101213.70;1722952;82;21053;-71
2021/12/18 00:43:31;;;;;;;34.90;6.70;;;;;;;1.32;92.42;101211.17;1720657;82;22319;-72
2021/12/18 00:45:53;;;;;;;7.58;3.45;;;;;;;1.36;92.44;101215.51;1722657;82;21607;-72
2021/12/18 00:48:20;;;;;;;14.13;3.90;;;;;;;1.40;92.47;101224.13;1722043;82;21083;-71
2021/12/18 00:50:47;;;;;;;9.93;3.70;;;;;;;1.43;92.56;101226.73;1720347;82;21809;-72
2021/12/18 00:53:14;;;;;;;4.00;3.10;;;;;;;1.46;92.57;101230.25;1699484;83;21594;-71
2021/12/18 00:55:41;;;;;;;;;;;;;;;1.49;92.61;101234.15;1697101;83;21017;-72
2021/12/18 00:58:09;;;;;;;12.85;4.78;;;;;;;1.50;92.58;101229.43;1722884;82;20150;-72
2021/12/18 01:00:38;;;;;;;13.05;3.30;;;;;;;1.52;92.64;101223.89;1690858;82;20992;-72
2021/12/18 01:03:14;;;;;;;27.22;4.60;;;;;;;1.53;92.62;101226.89;1714028;83;21111;-71
2021/12/18 01:05:34;;;;;;;7.10;3.30;;;;;;;1.53;92.65;101219.17;1694190;83;21620;-71
2021/12/18 01:08:01;;;;;;;17.57;3.93;;;;;;;1.54;92.63;101213.59;1725010;81;21668;-71
2021/12/18 01:10:51;;;;;;;5.87;2.92;;;;;;;1.56;92.67;101218.34;1721711;82;21120;-72
2021/12/18 01:13:05;;;;;;;16.57;4.55;;;;;;;1.56;92.60;101217.92;1702953;82;21475;-71
2021/12/18 01:15:36;;;;;;;17.32;3.85;;;;;;;1.54;92.57;101208.05;1710114;82;21120;-71
2021/12/18 01:23:30;;;;;;;13.95;3.50;;;;;;;1.58;92.69;101213.23;1711229;82;21105;-72
2021/12/18 01:25:58;;;;;;;9.13;3.45;;;;;;;1.59;92.74;101205.52;1704651;82;21042;-71
2021/12/18 01:28:25;;;;;;;4.40;3.25;;;;;;;1.58;92.66;101210.66;1710089;82;21085;-71
2021/12/18 01:30:53;;;;;;;14.55;5.17;;;;;;;1.60;92.73;101214.09;1714840;82;20969;-71
2021/12/18 01:33:19;;;;;;;5.83;3.35;;;;;;;1.60;92.70;101209.84;1716472;83;21715;-72
2021/12/18 01:35:47;;;;;;;18.07;4.37;;;;;;;1.63;92.80;101216.75;1681146;83;21204;-72
2021/12/18 01:38:14;;;;;;;;;;;;;;;1.65;92.87;101225.33;1716548;82;21475;-71
2021/12/18 01:40:42;;;;;;;13.53;3.83;;;;;;;1.69;92.95;101229.69;1709618;82;21220;-71
2021/12/18 01:43:57;;;;;;;4.97;3.42;;;;;;;1.72;93.02;101224.58;1708289;82;21603;-72
2021/12/18 01:53:36;;;;;;;11.55;4.90;;;;;;;1.75;93.04;101211.73;1701476;82;21130;-71
2021/12/18 01:56:03;;;;;;;6.90;4.40;;;;;;;1.77;93.12;101215.20;1704270;82;21020;-71
2021/12/18 01:58:30;;;;;;;8.13;5.40;;;;;;;1.78;93.12;101210.48;1708792;83;21718;-72
2021/12/18 02:00:59;;;;;;;9.35;5.22;;;;;;;1.79;93.22;101210.91;1701565;83;21083;-71
2021/12/18 02:03:26;;;;;;;7.58;5.08;;;;;;;1.83;93.26;101206.69;1719993;82;21343;-72
2021/12/18 02:05:53;;;;;;;9.55;6.03;;;;;;;1.84;93.19;101201.55;1716359;83;21150;-71
2021/12/18 02:08:24;;;;;;;8.30;5.78;;;;;;;1.83;93.17;101202.40;1717145;83;20981;-71
2021/12/18 02:10:57;;;;;;;10.80;6.00;;;;;;;1.84;93.14;101204.12;1721556;82;20929;-71
2021/12/18 02:21:11;;;;;;;13.75;6.37;;;;;;;1.86;93.30;101207.59;1662816;85;20958;-71
2021/12/18 02:23:38;;;;;;;17.45;6.60;;;;;;;1.85;93.39;101209.73;1686294;83;21017;-71
2021/12/18 02:26:05;;;;;;;13.10;7.35;;;;;;;1.87;93.49;101201.58;1688402;84;21020;-72
2021/12/18 02:28:32;;;;;;;13.00;6.08;;;;;;;1.90;93.42;101188.73;1686931;83;21020;-71
2021/12/18 02:30:59;;;;;;;13.50;7.92;;;;;;;1.91;93.41;101186.62;1691919;84;21141;-71
2021/12/18 02:33:26;;;;;;;;;;;;;;;1.89;93.56;101170.27;1692790;84;20984;-71
2021/12/18 02:35:56;;;;;;;12.30;6.45;;;;;;;1.88;93.68;101172.42;1660214;85;20171;-71
2021/12/18 02:41:39;;;;;;;16.15;6.28;;;;;;;1.90;93.67;101160.39;1678241;84;21052;-71
2021/12/18 02:44:09;;;;;;;15.38;7.97;;;;;;;1.94;93.66;101153.59;1655051;85;21041;-71
2021/12/18 02:46:38;;;;;;;16.23;7.50;;;;;;;1.94;93.70;101130.41;1690154;83;21095;-71
2021/12/18 02:49:09;;;;;;;16.25;7.05;;;;;;;1.97;93.69;101136.45;1688432;83;21507;-72
2021/12/18 02:51:36;;;;;;;13.22;6.75;;;;;;;1.99;93.70;101142.48;1689741;83;21560;-71
2021/12/18 02:54:03;;;;;;;17.53;8.37;;;;;;;2.03;93.67;101134.79;1690589;84;20985;-71
2021/12/18 02:56:29;;;;;;;13.60;7.67;;;;;;;2.05;93.67;101126.66;1658635;85;21162;-72
2021/12/18 02:59:04;;;;;;;17.53;8.03;;;;;;;2.05;93.67;101126.66;1656447;86;21029;-72
2021/12/18 03:01:31;;;;;;;15.55;6.83;;;;;;;2.05;93.75;101125.37;1685112;83;20927;-71
2021/12/18 03:04:00;;;;;;;14.23;6.67;;;;;;;2.09;93.69;101125.83;1681534;84;20957;-72
2021/12/18 03:06:38;;;;;;;16.17;7.65;;;;;;;2.13;93.74;101135.30;1684578;83;21112;-72
2021/12/18 03:22:59;;;;;;;16.97;7.28;;;;;;;2.12;93.82;101140.02;1674700;83;21272;-71
2021/12/18 03:25:26;;;;;;;;;;;;;;;2.12;93.82;101145.17;1716801;82;21606;-71
2021/12/18 03:27:48;;;;;;;17.17;7.53;;;;;;;2.11;93.88;101126.71;1696699;84;20214;-71
2021/12/18 03:30:16;;;;;;;16.75;6.95;;;;;;;2.10;93.87;101121.09;1732518;82;21150;-71
2021/12/18 03:32:44;;;;;;;19.00;7.70;;;;;;;2.08;93.83;101127.97;1729756;82;21580;-72
2021/12/18 03:35:11;;;;;;;14.83;6.92;;;;;;;2.06;93.92;101118.07;1716579;82;21520;-71
2021/12/18 03:37:39;;;;;;;19.42;7.85;;;;;;;2.07;94.03;101119.36;1722858;81;20949;-71
2021/12/18 03:40:08;;;;;;;;;;;;;;;2.14;93.98;101116.44;1695539;82;21166;-71
2021/12/18 03:42:35;;;;;;;11.70;6.92;;;;;;;2.13;93.98;101113.39;1718547;82;20122;-71
2021/12/18 03:45:05;;;;;;;15.32;6.75;;;;;;;2.14;93.93;101120.30;1719431;81;21020;-71
2021/12/18 03:47:32;;;;;;;14.20;6.72;;;;;;;2.11;93.92;101121.56;1715811;82;21079;-71
2021/12/18 03:49:58;;;;;;;12.68;6.92;;;;;;;2.10;93.89;101114.66;1720639;81;21012;-71
2021/12/18 03:52:25;;;;;;;13.90;6.90;;;;;;;2.09;93.96;101107.79;1716674;82;20989;-71
2021/12/18 03:54:52;;;;;;;16.27;8.77;;;;;;;2.11;93.93;101108.67;1719207;81;21142;-71
2021/12/18 03:57:18;;;;;;;12.25;8.25;;;;;;;2.15;93.83;101101.40;1689693;83;21115;-71
2021/12/18 03:59:45;;;;;;;17.65;8.15;;;;;;;2.15;93.72;101098.83;1718985;83;21050;-72
2021/12/18 04:02:12;;;;;;;14.90;6.92;;;;;;;2.16;93.77;101105.72;1686667;83;21037;-71
2021/12/18 04:04:38;;;;;;;16.33;8.27;;;;;;;2.07;93.88;101098.74;1704356;82;21084;-71
2021/12/18 04:07:07;;;;;;;15.90;7.55;;;;;;;2.07;93.99;101095.31;1711994;82;21110;-72
2021/12/18 04:09:34;;;;;;;14.43;7.40;;;;;;;2.10;93.97;101101.37;1705160;83;21182;-71
2021/12/18 04:12:02;;;;;;;14.98;7.22;;;;;;;2.14;93.91;101099.69;1704676;82;21104;-71
2021/12/18 04:14:29;;;;;;;14.55;7.75;;;;;;;2.15;93.84;101098.83;1680197;83;21086;-71
2021/12/18 04:16:56;;;;;;;15.08;8.20;;;;;;;2.13;93.81;101100.52;1686928;83;21597;-72
2021/12/18 04:19:23;;;;;;;14.13;8.18;;;;;;;2.14;93.83;101094.53;1713088;82;25122;-72
2021/12/18 04:21:50;;;;;;;18.07;8.55;;;;;;;2.14;93.86;101102.27;1706462;82;21654;-72
2021/12/18 04:24:16;;;;;;;14.57;8.27;;;;;;;2.11;93.92;101099.66;1710084;82;21268;-71
2021/12/18 04:26:43;;;;;;;16.35;8.70;;;;;;;2.06;94.12;101092.30;1720519;82;21807;-72
2021/12/18 04:29:10;;;;;;;11.83;7.95;;;;;;;2.01;94.28;101099.55;1725278;81;21091;-71
2021/12/18 04:31:38;;;;;;;16.10;9.13;;;;;;;2.00;94.38;101102.98;1724427;81;20917;-71
2021/12/18 04:34:07;;;;;;;19.55;10.35;;;;;;;1.99;94.36;101096.12;1728302;82;21167;-71
2021/12/18 04:36:34;;;;;;;14.28;8.83;;;;;;;1.99;94.33;101097.84;1725265;81;22268;-72
2021/12/18 04:39:02;;;;;;;16.50;10.05;;;;;;;2.03;94.30;101096.14;1726920;82;20981;-71
2021/12/18 04:41:39;;;;;;;19.57;10.23;;;;;;;2.02;94.28;101091.42;1708697;81;21059;-71
2021/12/18 04:44:04;;;;;;;14.98;9.55;;;;;;;2.00;94.40;101083.66;1727039;81;21109;-71
2021/12/18 04:46:31;;;;;;;13.05;9.53;;;;;;;2.04;94.43;101082.40;1724189;81;21112;-71
2021/12/18 04:48:58;;;;;;;16.82;10.53;;;;;;;2.04;94.38;101082.40;1720834;82;21942;-71
2021/12/18 04:51:25;;;;;;;14.78;9.90;;;;;;;2.06;94.35;101088.44;1713906;82;21003;-71
2021/12/18 04:53:52;;;;;;;19.87;11.60;;;;;;;2.06;94.38;101085.86;1705191;82;21541;-72
2021/12/18 04:56:19;;;;;;;18.82;9.98;;;;;;;2.09;94.41;101089.75;1672377;84;21025;-72
2021/12/18 04:58:45;;;;;;;15.43;10.28;;;;;;;2.12;94.40;101080.77;1713963;83;21040;-71
2021/12/18 05:01:12;;;;;;;18.45;11.05;;;;;;;2.13;94.41;101072.17;1714708;82;21224;-72
2021/12/18 05:03:40;;;;;;;15.63;10.82;;;;;;;2.15;94.45;101062.75;1710360;82;21019;-72
2021/12/18 05:06:06;;;;;;;15.70;9.60;;;;;;;2.16;94.46;101042.16;1706081;82;21520;-72
2021/12/18 05:08:33;;;;;;;13.07;8.77;;;;;;;2.19;94.44;101039.61;1720159;83;22328;-72
2021/12/18 05:11:00;;;;;;;14.35;9.53;;;;;;;2.20;94.46;101040.46;1717913;81;21084;-72
2021/12/18 05:13:26;;;;;;;14.65;9.85;;;;;;;2.22;94.52;101033.62;1719101;82;22230;-72
2021/12/18 05:15:53;;;;;;;12.85;8.63;;;;;;;2.25;94.54;101034.92;1724962;82;21137;-72
2021/12/18 05:18:20;;;;;;;18.70;10.03;;;;;;;2.25;94.61;101023.33;1724253;82;21117;-72
2021/12/18 05:20:46;;;;;;;13.65;9.95;;;;;;;2.23;94.57;101027.59;1727112;82;20971;-72
2021/12/18 05:23:13;;;;;;;10.95;8.58;;;;;;;2.25;94.67;101027.20;1726051;82;21031;-71
2021/12/18 05:25:39;;;;;;;14.83;10.25;;;;;;;2.28;94.65;101018.19;1689141;84;22435;-72
2021/12/18 05:28:06;;;;;;;11.20;7.83;;;;;;;2.27;94.65;101015.59;1721742;81;21705;-72
2021/12/18 05:30:33;;;;;;;17.47;8.50;;;;;;;2.26;94.64;101018.59;1705831;82;21183;-72
2021/12/18 05:32:59;;;;;;;11.90;7.62;;;;;;;2.26;94.73;101019.03;1722942;82;21141;-72
2021/12/18 05:35:26;;;;;;;11.35;7.65;;;;;;;2.26;94.72;101026.33;1726303;82;21006;-72
2021/12/18 05:37:54;;;;;;;13.90;8.00;;;;;;;2.23;94.78;101018.15;1687065;83;21053;-72
2021/12/18 05:40:25;;;;;;;8.38;7.12;;;;;;;2.24;94.80;101013.85;1715522;83;21047;-72
2021/12/18 05:42:53;;;;;;;7.90;6.08;;;;;;;2.26;94.81;101016.02;1718284;82;20957;-72
2021/12/18 05:45:20;;;;;;;13.68;7.08;;;;;;;2.26;94.81;101013.88;1727509;82;21062;-72
2021/12/18 05:47:48;;;;;;;8.95;6.40;;;;;;;2.26;94.81;101009.58;1693016;83;26835;-72
2021/12/18 05:50:17;;;;;;;9.68;6.47;;;;;;;2.27;94.85;101006.17;1718866;82;21095;-72
2021/12/18 05:52:46;;;;;;;8.83;5.80;;;;;;;2.28;94.87;101018.19;1715097;82;21086;-72
2021/12/18 05:55:14;;;;;;;11.28;7.17;;;;;;;2.29;94.97;101019.91;1721589;82;21079;-72
2021/12/18 05:57:43;;;;;;;9.30;6.50;;;;;;;2.29;94.81;101013.89;1719089;81;20989;-72
2021/12/18 06:00:12;;;;;;;10.85;6.85;;;;;;;2.27;94.86;101031.95;1717309;82;21471;-71
2021/12/18 06:02:39;;;;;;;8.75;5.58;;;;;;;2.25;94.86;101020.75;1725430;82;21016;-72
2021/12/18 06:05:07;;;;;;;12.60;7.25;;;;;;;2.24;94.93;101017.72;1690473;83;21087;-72
2021/12/18 06:07:52;;;;;;;12.68;6.40;;;;;;;2.25;94.98;101016.89;1719433;82;21647;-72
2021/12/18 06:10:07;;;;;;;8.43;5.95;;;;;;;2.28;95.03;101007.88;1721587;81;20933;-71
2021/12/18 06:12:34;;;;;;;11.22;6.80;;;;;;;2.28;94.96;101010.46;1698164;82;26835;-72
2021/12/18 06:15:01;;;;;;;7.50;5.50;;;;;;;2.28;95.01;100998.86;1707223;82;21925;-72
2021/12/18 06:17:27;;;;;;;9.37;5.50;;;;;;;2.29;95.05;100995.42;1710040;82;20997;-71
2021/12/18 06:19:54;;;;;;;12.20;5.80;;;;;;;2.31;95.10;100995.02;1682884;84;21502;-70
2021/12/18 06:22:21;;;;;;;14.63;6.22;;;;;;;2.32;95.08;100982.55;1706457;82;21713;-72
2021/12/18 06:24:47;;;;;;;9.10;5.97;;;;;;;2.31;95.11;100976.97;1704565;83;21596;-71
2021/12/18 06:27:14;;;;;;;7.55;5.85;;;;;;;2.34;95.11;100976.14;1678593;84;21298;-72
2021/12/18 06:29:42;;;;;;;8.63;6.40;;;;;;;2.36;95.16;100977.02;1706015;82;21131;-71
2021/12/18 06:32:08;;;;;;;9.80;6.15;;;;;;;2.37;95.13;100981.31;1707157;82;21013;-71
2021/12/18 06:34:35;;;;;;;7.05;5.40;;;;;;;2.37;95.08;100989.89;1676446;84;20974;-72
2021/12/18 06:37:02;;;;;;;14.10;6.13;;;;;;;2.35;95.12;100986.47;1680972;84;21005;-71
2021/12/18 06:39:29;;;;;;;19.73;6.83;;;;;;;2.36;95.18;100988.18;1706288;82;21249;-72
2021/12/18 06:41:56;;;;;;;11.23;6.20;;;;;;;2.35;95.21;100980.03;1708054;82;21000;-72
2021/12/18 06:44:23;;;;;;;11.73;6.50;;;;;;;2.39;95.27;100986.91;1702283;83;21043;-72
2021/12/18 06:46:50;;;;;;;12.63;6.47;;;;;;;2.41;95.30;100994.23;1709443;82;21047;-72
2021/12/18 06:49:16;;;;;;;9.40;6.12;;;;;;;2.42;95.35;101001.10;1685956;83;21036;-72
2021/12/18 06:51:43;;;;;;;13.25;7.78;;;;;;;2.41;95.33;100994.23;1713923;82;20933;-72
2021/12/18 06:54:10;;;;;;;13.88;7.67;;;;;;;2.42;95.38;100998.53;1680073;84;21565;-72
2021/12/18 06:56:36;;;;;;;10.68;7.33;;;;;;;2.45;95.44;100995.97;1694847;82;21008;-72
2021/12/18 06:59:03;;;;;;;13.30;7.45;;;;;;;2.46;95.39;100997.71;1712163;82;21533;-72
2021/12/18 07:01:29;;;;;;;16.50;9.45;;;;;;;2.48;95.48;100978.80;1704798;82;20958;-72
2021/12/18 07:03:56;;;;;;;16.40;8.85;;;;;;;2.48;95.46;100971.06;1709153;83;21871;-72
2021/12/18 07:06:23;;;;;;;13.40;8.53;;;;;;;2.51;95.53;100973.66;1676284;84;20979;-72
2021/12/18 07:08:50;;;;;;;10.80;8.20;;;;;;;2.52;95.54;100976.66;1704263;82;22358;-72
2021/12/18 07:11:17;;;;;;;13.32;8.28;;;;;;;2.53;95.51;100977.11;1707821;82;20929;-72
2021/12/18 07:13:43;;;;;;;12.75;7.47;;;;;;;2.52;95.56;100976.66;1715321;82;21008;-71
2021/12/18 07:16:10;;;;;;;10.30;7.83;;;;;;;2.53;95.58;100960.36;1708280;83;21099;-71
2021/12/18 07:18:37;;;;;;;16.07;7.58;;;;;;;2.53;95.59;100951.33;1709486;82;21027;-71
2021/12/18 07:21:04;;;;;;;10.23;6.87;;;;;;;2.56;95.65;100953.92;1708819;82;21812;-70
2021/12/18 07:23:31;;;;;;;10.55;7.25;;;;;;;2.59;95.71;100955.23;1683082;84;21081;-71
2021/12/18 07:25:58;;;;;;;15.32;9.13;;;;;;;2.59;95.71;100956.52;1709744;83;21265;-72
2021/12/18 07:28:25;;;;;;;11.50;8.70;;;;;;;2.63;95.79;100947.92;1716206;82;21084;-71
2021/12/18 07:30:51;;;;;;;12.15;7.70;;;;;;;2.65;95.81;100934.63;1712458;82;21027;-70
2021/12/18 07:33:18;;;;;;;10.40;8.37;;;;;;;2.68;95.85;100941.94;1718500;82;21000;-75
2021/12/18 07:35:45;;;;;;;9.30;7.30;;;;;;;2.72;95.88;100922.60;1705970;82;21028;-73
2021/12/18 07:38:12;;;;;;;10.43;7.22;;;;;;;2.73;95.87;100929.07;1716231;82;21005;-72
2021/12/18 07:40:39;;;;;;;13.15;7.30;;;;;;;2.75;95.91;100922.64;1682432;84;21161;-73
2021/12/18 07:43:05;;;;;;;17.90;10.82;;;;;;;2.74;96.05;100919.61;1710845;83;21535;-73
2021/12/18 07:45:34;;;;;;;12.53;10.05;;;;;;;2.77;96.07;100903.70;1694125;84;21040;-71
2021/12/18 07:48:03;;;;;;;11.03;7.97;;;;;;;2.81;96.09;100893.85;1681016;84;21202;-72
2021/12/18 07:50:31;;;;;;;9.90;7.78;;;;;;;2.83;96.16;100889.57;1714552;82;21027;-72
2021/12/18 07:52:58;;;;;;;;;;;;;;;2.88;96.21;100885.26;1717782;81;21068;-72
2021/12/18 07:55:28;;;;;;;11.68;7.53;;;;;;;2.90;96.16;100888.71;1683788;84;20528;-72
2021/12/18 07:57:54;;;;;;;12.63;7.25;;;;;;;2.94;96.24;100886.14;1708428;82;21159;-72
2021/12/18 08:00:22;;;;;;;9.90;7.43;;;;;;;2.96;96.23;100892.17;1684141;84;21131;-72
2021/12/18 08:02:48;;;;;;;8.78;6.60;;;;;;;2.99;96.20;100889.59;1713689;82;21150;-72
2021/12/18 08:05:15;;;;;;;12.27;7.77;;;;;;;3.01;96.26;100889.18;1712631;82;21912;-72
2021/12/18 08:07:42;;;;;;;9.30;6.62;;;;;;;3.03;96.20;100883.61;1708675;83;20961;-72
2021/12/18 08:10:10;;;;;;;8.58;5.95;;;;;;;2.99;96.14;100882.71;1721513;82;20967;-72
2021/12/18 08:12:36;;;;;;;9.53;6.42;;;;;;;3.09;96.23;100878.45;1712219;82;21091;-72
2021/12/18 08:15:06;;;;;;;7.83;5.67;;;;;;;3.10;96.20;100883.59;1714723;82;21110;-72
2021/12/18 08:17:33;;;;;;;6.47;5.03;;;;;;;3.10;96.18;100872.42;1683023;83;21982;-72
2021/12/18 08:20:00;;;;;;;9.08;5.83;;;;;;;3.12;96.23;100862.97;1722399;82;21016;-73
2021/12/18 08:22:26;;;;;;;7.53;5.20;;;;;;;3.14;96.24;100874.16;1712991;81;21103;-72
2021/12/18 08:24:53;;;;;;;20.15;6.58;;;;;;;3.18;96.30;100870.71;1718153;83;21143;-72
2021/12/18 08:27:20;;;;;;;11.70;4.87;;;;;;;3.20;96.30;100862.55;1713421;81;21033;-72
2021/12/18 08:29:46;;;;;;;34.50;6.80;;;;;;;3.24;96.37;100853.94;1709911;83;21228;-72
2021/12/18 08:32:13;;;;;;;75.47;12.73;;;;;;;3.29;96.39;100848.79;1713680;83;21189;-72
2021/12/18 08:34:43;;;;;;;74.53;13.78;;;;;;;3.35;96.50;100850.93;1711018;83;21048;-72
2021/12/18 08:37:11;;;;;;;107.17;16.32;;;;;;;3.44;96.66;100846.63;1721981;82;21027;-72
2021/12/18 08:39:40;;;;;;;61.02;10.82;;;;;;;3.50;96.66;100847.51;1712656;82;21012;-72
2021/12/18 08:42:08;;;;;;;106.03;16.00;;;;;;;3.57;96.61;100840.61;1689676;83;21989;-72
2021/12/18 08:44:35;;;;;;;143.95;19.40;;;;;;;3.61;96.47;100847.48;1716605;82;21094;-70
2021/12/18 08:47:03;;;;;;;;;;;;;;;3.63;96.49;100848.34;1721966;82;21864;-71
2021/12/18 08:49:30;;;;;;;94.45;14.58;;;;;;;3.64;96.50;100850.09;1718997;83;20490;-71
2021/12/18 08:51:57;;;;;;;46.77;10.08;;;;;;;3.65;96.53;100832.86;1721998;82;21103;-71
2021/12/18 08:54:25;;;;;;;105.17;17.67;;;;;;;3.65;96.54;100832.42;1720134;81;21222;-70
2021/12/18 08:56:52;;;;;;;43.73;9.75;;;;;;;3.66;96.54;100826.82;1716764;81;21020;-71
2021/12/18 08:59:19;;;;;;;59.38;9.80;;;;;;;3.67;96.60;100826.83;1722628;82;21031;-71
2021/12/18 09:01:48;;;;;;;36.05;8.13;;;;;;;3.69;96.58;100830.25;1713668;83;20952;-71
2021/12/18 09:04:15;;;;;;;42.15;8.98;;;;;;;3.67;96.51;100829.41;1717617;82;20929;-71
2021/12/18 09:06:41;;;;;;;55.85;10.58;;;;;;;3.66;96.68;100830.26;1715577;82;22609;-71
2021/12/18 09:09:08;;;;;;;35.03;7.45;;;;;;;3.66;96.71;100832.84;1692555;84;21018;-71
2021/12/18 09:11:34;;;;;;;12.10;4.35;;;;;;;3.68;96.72;100836.29;1682567;83;21055;-71
2021/12/18 09:14:02;;;;;;;51.42;9.80;;;;;;;3.64;96.71;100832.00;1686466;83;21601;-71
2021/12/18 09:16:33;;;;;;;97.85;14.15;;;;;;;3.63;96.83;100832.84;1674345;84;21068;-71
2021/12/18 09:19:03;;;;;;;47.23;8.88;;;;;;;3.66;96.98;100831.55;1704374;82;21909;-71
2021/12/18 09:21:30;;;;;;;40.38;7.55;;;;;;;3.69;96.93;100830.25;1708387;82;21523;-68
2021/12/18 09:23:58;;;;;;;13.80;5.00;;;;;;;3.69;96.84;100819.92;1681506;84;27089;-70
2021/12/18 09:26:25;;;;;;;16.27;4.92;;;;;;;3.66;96.85;100816.05;1693119;82;21583;-70
2021/12/18 09:28:52;;;;;;;12.47;5.37;;;;;;;3.69;96.90;100812.17;1692681;82;21655;-70
2021/12/18 09:31:21;;;;;;;12.15;5.20;;;;;;;3.69;96.90;100813.46;1663540;84;21029;-70
2021/12/18 09:33:49;;;;;;;6.05;4.87;;;;;;;3.70;96.90;100808.74;1706090;82;21039;-71
2021/12/18 09:36:16;;;;;;;10.48;5.35;;;;;;;3.71;96.96;100801.41;1713358;82;20929;-70
2021/12/18 09:38:43;;;;;;;6.75;5.08;;;;;;;3.77;97.03;100803.13;1706376;83;21590;-70
2021/12/18 09:41:10;;;;;;;6.78;4.35;;;;;;;3.74;96.87;100805.28;1710881;82;21096;-71
2021/12/18 09:43:38;;;;;;;5.50;4.40;;;;;;;3.72;96.87;100791.50;1704927;83;21023;-71
2021/12/18 09:46:11;;;;;;;6.60;4.22;;;;;;;3.74;97.01;100791.06;1687925;83;21038;-70
2021/12/18 09:48:41;;;;;;;6.03;4.35;;;;;;;3.73;96.95;100795.82;1675991;84;21012;-71
2021/12/18 09:51:20;;;;;;;8.40;4.50;;;;;;;3.72;96.95;100785.48;1702798;82;21031;-71
2021/12/18 09:53:41;;;;;;;24.82;5.05;;;;;;;3.73;97.10;100772.57;1705056;83;21110;-70
2021/12/18 09:56:08;;;;;;;8.60;3.92;;;;;;;3.80;97.16;100787.61;1705124;83;21101;-70
2021/12/18 09:58:35;;;;;;;7.50;3.72;;;;;;;3.79;97.09;100775.13;1708052;82;21124;-70
2021/12/18 10:01:06;;;;;;;4.15;3.08;;;;;;;3.76;97.04;100774.29;1704385;82;21183;-70
2021/12/18 10:03:57;;;;;;;7.83;3.67;;;;;;;3.74;97.03;100766.53;1708085;82;21025;-70
2021/12/18 10:06:43;;;;;;;11.18;3.87;;;;;;;3.76;97.08;100780.31;1703932;83;21135;-70
2021/12/18 10:09:23;;;;;;;2.97;2.43;;;;;;;3.77;97.07;100774.27;1665395;84;22795;-69
2021/12/18 10:11:57;;;;;;;2.80;2.40;;;;;;;3.78;97.07;100773.42;1700921;82;21023;-70
2021/12/18 10:14:44;;;;;;;6.08;2.50;;;;;;;3.76;97.10;100790.64;1691558;82;21158;-71
2021/12/18 10:17:34;;;;;;;9.53;2.90;;;;;;;3.76;97.13;100782.89;1718240;83;21104;-69
2021/12/18 10:20:19;;;;;;;4.65;3.27;;;;;;;3.78;97.18;100791.51;1680364;83;21110;-68
2021/12/18 10:22:56;;;;;;;3.77;2.95;;;;;;;3.78;97.24;100774.72;1718990;82;21079;-70
2021/12/18 10:25:35;;;;;;;7.50;4.83;;;;;;;3.79;97.34;100764.80;1720141;83;21004;-70
2021/12/18 10:28:14;;;;;;;4.30;3.08;;;;;;;3.85;97.39;100764.36;1718796;83;21075;-70
2021/12/18 10:30:52;;;;;;;7.75;3.98;;;;;;;3.90;97.46;100758.75;1724284;82;21063;-70
2021/12/18 10:33:20;;;;;;;22.67;3.70;;;;;;;3.94;97.42;100765.61;1744929;80;21103;-70
2021/12/18 10:35:54;;;;;;;6.03;3.75;;;;;;;3.99;97.38;100766.02;1694227;83;21527;-70
2021/12/18 10:38:45;;;;;;;4.85;3.15;;;;;;;3.99;97.25;100756.13;1687011;83;21047;-71
2021/12/18 10:41:31;;;;;;;18.30;3.72;;;;;;;3.99;97.28;100750.95;1716026;82;22379;-71
2021/12/18 10:44:07;;;;;;;31.42;4.95;;;;;;;4.00;97.36;100755.25;1714816;82;21120;-70
2021/12/18 10:46:37;;;;;;;6.92;3.30;;;;;;;4.03;97.40;100744.89;1712196;82;21594;-70
2021/12/18 10:49:12;;;;;;;21.25;4.30;;;;;;;4.03;97.40;100744.89;1713897;82;21105;-70
2021/12/18 10:51:40;;;;;;;12.82;3.70;;;;;;;4.05;97.43;100735.42;1682727;83;21079;-71
2021/12/18 10:54:18;;;;;;;7.00;3.52;;;;;;;4.10;97.53;100736.27;1720130;82;21016;-71
2021/12/18 10:56:48;;;;;;;14.95;3.80;;;;;;;4.12;97.44;100734.54;1723235;82;21096;-71
2021/12/18 10:59:31;;;;;;;19.12;4.42;;;;;;;4.18;97.58;100726.75;1721797;82;21050;-71
2021/12/18 11:02:02;;;;;;;12.82;3.50;;;;;;;4.27;97.63;100712.91;1723930;82;21996;-71
2021/12/18 11:04:33;;;;;;;7.33;2.77;;;;;;;4.31;97.51;100709.86;1722731;82;21118;-70
2021/12/18 11:07:06;;;;;;;4.80;3.10;;;;;;;4.36;97.52;100704.23;1713956;82;21662;-71
2021/12/18 11:09:45;;;;;;;7.95;3.00;;;;;;;4.39;97.55;100708.95;1662027;83;21057;-71
2021/12/18 11:14:36;;;;;;;17.20;3.52;;;;;;;4.49;97.58;100712.35;1715342;82;21250;-70
2021/12/18 11:17:07;;;;;;;7.62;2.92;;;;;;;4.58;97.66;100710.98;1704915;82;21040;-70
2021/12/18 11:19:35;;;;;;;10.25;3.02;;;;;;;4.59;97.41;100713.13;1710180;82;21115;-71
2021/12/18 11:22:06;;;;;;;24.43;5.60;;;;;;;4.62;97.53;100702.36;1685902;83;20984;-72
2021/12/18 11:24:42;;;;;;;11.03;3.35;;;;;;;4.64;97.41;100700.59;1715130;82;21758;-70
2021/12/18 11:27:17;;;;;;;30.25;6.33;;;;;;;4.64;97.25;100703.17;1709102;82;21102;-70
2021/12/18 11:30:08;;;;;;;41.70;9.75;;;;;;;4.60;97.24;100707.97;1705446;82;21812;-70
2021/12/18 11:32:42;;;;;;;33.50;7.17;;;;;;;4.64;97.54;100694.13;1709241;83;21687;-70
2021/12/18 11:35:16;;;;;;;35.38;6.85;;;;;;;4.66;97.48;100689.80;1710005;82;22235;-70
2021/12/18 11:37:47;;;;;;;90.60;17.92;;;;;;;4.68;97.54;100695.84;1688265;83;21621;-70
2021/12/18 11:40:28;;;;;;;91.22;20.62;;;;;;;4.64;97.34;100690.24;1687330;83;21105;-70
2021/12/18 11:42:55;;;;;;;96.25;15.63;;;;;;;4.66;97.53;100683.34;1707095;82;21586;-71
2021/12/18 11:45:30;;;;;;;;;;;;;;;4.64;97.43;100678.61;1712433;83;21090;-70
2021/12/18 11:47:59;;;;;;;175.80;29.87;;;;;;;4.65;97.52;100676.87;1708482;82;20228;-70
2021/12/18 11:50:32;;;;;;;17.10;3.95;;;;;;;4.67;97.60;100677.28;1659124;84;21061;-70
2021/12/18 11:53:11;;;;;;;49.33;7.37;;;;;;;4.67;97.40;100676.43;1710763;82;21122;-70
2021/12/18 11:55:55;;;;;;;5.85;2.95;;;;;;;4.62;97.25;100672.61;1715572;82;21159;-70
2021/12/18 11:58:30;;;;;;;6.40;3.95;;;;;;;4.55;97.13;100678.68;1710384;82;21059;-70
2021/12/18 12:01:05;;;;;;;3.70;3.00;;;;;;;4.48;97.27;100666.23;1692321;83;21020;-71
2021/12/18 12:03:40;;;;;;;3.92;2.90;;;;;;;4.55;97.58;100667.05;1675639;84;21112;-70
2021/12/18 12:06:35;;;;;;;4.37;2.83;;;;;;;4.55;97.37;100657.99;1670156;84;21195;-70
2021/12/18 12:09:35;;;;;;;3.72;2.72;;;;;;;4.48;97.23;100654.61;1680058;83;21052;-70
2021/12/18 12:12:04;;;;;;;6.03;2.95;;;;;;;4.41;97.32;100643.02;1686067;84;21552;-70
2021/12/18 12:14:40;;;;;;;5.00;3.25;;;;;;;4.45;97.53;100638.23;1716114;82;21016;-70
2021/12/18 12:17:25;;;;;;;3.35;2.52;;;;;;;4.44;97.44;100639.11;1676952;84;21136;-71
2021/12/18 12:19:56;;;;;;;2.12;1.90;;;;;;;4.43;97.42;100623.19;1665510;84;21100;-71